Woodsboro, Maryland
Current Conditions -  °F | °C
As of 3:30 AM on Friday 28 Nov 2014 (Local Time) from KFDK Reporting Station
Clear Clear  
Wind Chill: 24°   Ceiling: Unl
Heat Index: 34°   Visibility: 10mi
Dew Point: 23°   Wind: 15mph
Humidity: 65%   Direction: 290°WNW
Pressure: 30.23"   Gusts: 20mph
Location:  39.53°N, 77.31°W
Report Text: KFDK 280830Z AUTO 29013G17KT 10SM CLR 01/M05 A3023 RMK AO2
Loading
Personal Weather Stations






























Interactive Weather Map New forecast layout! Learn more

10-Day Weather Forecast

Advertisements
Track Severe Weather on mobile